Time;durP1;ratioP1;P1;durP2;ratioP2;P2;SDS_P1;SDS_P2;PMS_P1;PMS_P2;Temp;Humidity;BMP_temperature;BMP_pressure;BME280_temperature;BME280_humidity;BME280_pressure;Samples;Min_cycle;Max_cycle;Signal;HPM_P1;HPM_P2
2022/01/05 00:01:23;;;;;;;7.57;3.72;;;5.10;1.00;;;;;;5042264;28;20222;-85
2022/01/05 00:04:14;;;;;;;5.72;3.83;;;5.00;1.00;;;;;;5038356;28;20218;-86
2022/01/05 00:06:50;;;;;;;10.10;4.35;;;5.10;1.00;;;;;;5036173;28;20234;-85
2022/01/05 00:13:21;;;;;;;7.82;3.50;;;5.00;1.00;;;;;;4932253;28;20236;-85
2022/01/05 00:16:04;;;;;;;7.65;6.22;;;5.00;1.00;;;;;;5049021;28;20265;-85
2022/01/05 00:18:56;;;;;;;;;;;;;;;;;;;;;
2022/01/05 00:21:54;;;;;;;6.28;3.55;;;5.00;1.00;;;;;;5044761;28;20236;-85
2022/01/05 00:24:46;;;;;;;6.18;3.58;;;5.00;1.00;;;;;;5024258;28;20229;-86
2022/01/05 00:27:23;;;;;;;6.18;3.38;;;5.00;1.00;;;;;;5035676;28;21464;-86
2022/01/05 00:29:58;;;;;;;8.00;3.85;;;5.00;1.00;;;;;;5019359;28;20328;-86
2022/01/05 00:33:30;;;;;;;6.40;3.70;;;5.00;1.00;;;;;;5054598;28;20596;-85
2022/01/05 04:28:48;;;;;;;5.13;1.30;;;5.00;1.00;;;;;;4662900;22;20234;-88
2022/01/05 06:28:37;;;;;;;5.57;1.92;;;3.80;1.00;;;;;;5030158;28;20317;-84
2022/01/05 06:58:15;;;;;;;7.63;3.13;;;3.60;1.00;;;;;;4918686;28;20236;-86
2022/01/05 07:00:42;;;;;;;7.15;3.35;;;3.60;1.00;;;;;;5004894;28;20233;-81
2022/01/05 07:03:10;;;;;;;14.77;2.60;;;3.60;1.00;;;;;;5020529;28;20306;-81
2022/01/05 07:05:38;;;;;;;5.30;2.85;;;3.60;1.00;;;;;;5029181;28;20229;-80
2022/01/05 07:08:06;;;;;;;5.38;2.15;;;3.50;1.00;;;;;;5028473;28;20222;-81
2022/01/05 07:10:35;;;;;;;7.20;2.20;;;3.50;1.00;;;;;;5031582;28;20286;-81
2022/01/05 07:13:02;;;;;;;26.50;13.55;;;3.50;1.00;;;;;;5051071;28;20229;-79
2022/01/05 07:15:29;;;;;;;8.57;2.20;;;3.50;1.00;;;;;;5044122;28;20229;-80
2022/01/05 07:17:55;;;;;;;9.30;2.65;;;3.60;1.00;;;;;;5060178;28;20222;-79
2022/01/05 07:20:22;;;;;;;7.22;3.08;;;3.60;1.00;;;;;;5061150;28;20212;-79
2022/01/05 07:22:49;;;;;;;7.80;3.08;;;3.60;1.00;;;;;;5063359;28;20726;-79
2022/01/05 07:25:16;;;;;;;9.75;3.08;;;3.60;1.00;;;;;;5054288;28;20555;-79
2022/01/05 07:27:44;;;;;;;4.45;2.30;;;3.60;1.00;;;;;;5052103;28;20737;-79
2022/01/05 07:30:12;;;;;;;9.10;2.67;;;3.70;1.00;;;;;;5059229;28;20247;-80
2022/01/05 07:32:39;;;;;;;9.73;3.65;;;3.70;1.00;;;;;;5053813;28;20214;-80
2022/01/05 07:35:10;;;;;;;7.47;3.10;;;3.70;1.00;;;;;;5049727;28;20252;-80
2022/01/05 07:37:36;;;;;;;5.70;2.30;;;3.70;1.00;;;;;;5048491;28;20225;-81
2022/01/05 07:40:04;;;;;;;13.68;4.22;;;3.70;1.00;;;;;;5053689;28;20257;-80
2022/01/05 07:42:33;;;;;;;5.90;2.70;;;3.80;1.00;;;;;;5053495;28;20230;-77
2022/01/05 07:45:02;;;;;;;5.28;2.70;;;3.80;1.00;;;;;;5046184;28;20230;-77
2022/01/05 07:47:29;;;;;;;5.13;2.67;;;3.80;1.00;;;;;;5023805;28;21713;-78
2022/01/05 07:49:56;;;;;;;6.38;2.40;;;3.80;1.00;;;;;;5033715;28;20277;-79
2022/01/05 07:52:23;;;;;;;5.32;2.45;;;3.90;1.00;;;;;;5022449;28;20272;-80
2022/01/05 07:54:51;;;;;;;9.02;2.90;;;3.90;1.00;;;;;;5026082;28;20226;-79
2022/01/05 07:57:18;;;;;;;9.48;4.03;;;3.90;1.00;;;;;;5038598;28;20257;-79
2022/01/05 07:59:45;;;;;;;8.30;3.45;;;3.90;1.00;;;;;;5026922;28;20230;-78
2022/01/05 08:02:13;;;;;;;5.97;2.40;;;3.90;1.00;;;;;;5026443;28;20218;-81
2022/01/05 08:04:40;;;;;;;9.95;2.92;;;3.90;1.00;;;;;;5021636;28;22264;-80
2022/01/05 08:07:06;;;;;;;10.60;4.45;;;3.90;1.00;;;;;;5036426;28;20256;-78
2022/01/05 08:09:33;;;;;;;4.40;2.80;;;3.90;1.00;;;;;;5037173;28;20242;-79
2022/01/05 08:12:00;;;;;;;7.05;3.05;;;3.90;1.00;;;;;;5035982;28;21083;-80
2022/01/05 08:14:26;;;;;;;4.82;2.65;;;3.90;1.00;;;;;;5008770;28;20300;-78
2022/01/05 08:16:53;;;;;;;8.43;2.80;;;3.90;1.00;;;;;;5030829;28;20312;-80
2022/01/05 08:19:21;;;;;;;9.80;2.63;;;3.90;1.00;;;;;;5039902;28;20222;-79
2022/01/05 08:21:48;;;;;;;7.93;3.00;;;3.90;1.00;;;;;;5037527;28;20280;-78
2022/01/05 08:24:15;;;;;;;12.32;3.25;;;4.00;1.00;;;;;;5048487;28;20706;-80
2022/01/05 08:26:42;;;;;;;6.97;2.50;;;4.00;1.00;;;;;;5051437;28;20861;-80
2022/01/05 08:29:10;;;;;;;6.65;2.70;;;4.00;1.00;;;;;;5049986;28;20278;-80
2022/01/05 08:31:36;;;;;;;6.70;2.80;;;4.00;1.00;;;;;;5030495;28;20214;-80
2022/01/05 08:34:03;;;;;;;7.80;4.07;;;3.90;1.00;;;;;;5036744;28;20238;-81
2022/01/05 08:36:31;;;;;;;10.52;3.35;;;3.90;1.00;;;;;;5039769;28;20318;-81
2022/01/05 08:38:58;;;;;;;13.48;2.83;;;3.90;1.00;;;;;;5037157;28;21339;-80
2022/01/05 08:41:24;;;;;;;8.35;2.75;;;3.90;1.00;;;;;;5035820;28;20229;-82
2022/01/05 08:44:00;;;;;;;9.43;3.55;;;4.00;1.00;;;;;;5016884;28;20333;-85
2022/01/05 08:46:27;;;;;;;8.60;3.10;;;4.00;1.00;;;;;;5019450;28;20237;-83
2022/01/05 08:48:54;;;;;;;12.32;3.58;;;4.00;1.00;;;;;;5042371;28;20272;-81
2022/01/05 08:51:20;;;;;;;5.70;2.65;;;3.90;1.00;;;;;;5040410;28;20277;-81
2022/01/05 08:53:48;;;;;;;10.75;3.00;;;3.90;1.00;;;;;;5028409;28;20246;-82
2022/01/05 08:56:15;;;;;;;13.15;2.88;;;3.90;1.00;;;;;;5036526;28;20956;-83
2022/01/05 08:58:42;;;;;;;7.65;2.05;;;3.90;1.00;;;;;;5039851;28;20228;-81
2022/01/05 09:01:11;;;;;;;8.85;2.70;;;3.90;1.00;;;;;;5010109;28;20246;-81
2022/01/05 09:03:37;;;;;;;13.50;5.47;;;3.90;1.00;;;;;;5037526;28;20308;-82
2022/01/05 09:06:06;;;;;;;13.00;4.25;;;4.00;1.00;;;;;;5012525;28;20246;-81
2022/01/05 09:08:33;;;;;;;5.95;2.95;;;4.00;1.00;;;;;;5028996;28;20307;-80
2022/01/05 09:11:02;;;;;;;8.90;2.70;;;4.10;1.00;;;;;;5031960;28;20227;-81
2022/01/05 09:13:29;;;;;;;6.88;3.40;;;4.20;1.00;;;;;;5037657;28;20238;-79
2022/01/05 09:15:56;;;;;;;5.18;2.80;;;4.40;1.00;;;;;;5024766;28;20245;-80
2022/01/05 09:18:24;;;;;;;10.55;2.80;;;4.50;1.00;;;;;;5020492;28;20300;-78
2022/01/05 09:20:50;;;;;;;8.13;3.28;;;4.60;1.00;;;;;;5011036;28;20533;-79
2022/01/05 09:23:17;;;;;;;8.02;3.38;;;4.80;1.00;;;;;;5023812;28;20357;-79
2022/01/05 09:25:44;;;;;;;6.15;3.72;;;4.90;1.00;;;;;;5024889;28;20358;-78
2022/01/05 09:28:12;;;;;;;10.57;3.38;;;5.10;1.00;;;;;;5022181;28;20222;-79
2022/01/05 09:30:43;;;;;;;7.20;3.50;;;5.20;1.00;;;;;;5038971;28;21151;-78
2022/01/05 09:33:10;;;;;;;6.32;2.58;;;5.40;1.00;;;;;;5038771;28;20946;-79
2022/01/05 09:35:37;;;;;;;11.10;3.65;;;5.40;1.00;;;;;;5016295;28;20260;-78
2022/01/05 09:38:21;;;;;;;4.68;3.00;;;5.50;1.00;;;;;;5021373;28;20222;-77
2022/01/05 09:43:48;;;;;;;5.60;3.08;;;6.00;1.00;;;;;;5025009;28;20245;-80
2022/01/05 09:46:28;;;;;;;11.77;4.25;;;5.90;1.00;;;;;;5014998;28;20352;-80
2022/01/05 09:49:04;;;;;;;14.00;3.80;;;5.80;1.00;;;;;;5014226;28;20746;-78
2022/01/05 09:51:32;;;;;;;11.85;4.15;;;5.90;1.00;;;;;;5019513;28;20223;-80
2022/01/05 09:54:02;;;;;;;4.55;2.88;;;6.10;1.00;;;;;;5015086;28;21165;-78
2022/01/05 09:56:31;;;;;;;6.38;3.10;;;6.30;1.00;;;;;;5017729;28;20890;-79
2022/01/05 09:59:01;;;;;;;8.80;3.00;;;6.60;1.00;;;;;;5016784;28;20273;-79
2022/01/05 10:01:30;;;;;;;6.68;3.55;;;7.00;1.00;;;;;;5017708;28;20225;-78
2022/01/05 10:03:58;;;;;;;6.47;2.67;;;7.60;1.00;;;;;;5027045;28;21237;-79
2022/01/05 10:06:25;;;;;;;14.38;3.97;;;7.90;1.00;;;;;;5033853;28;20403;-78
2022/01/05 10:08:51;;;;;;;6.55;2.67;;;8.10;1.00;;;;;;5020281;28;20220;-80
2022/01/05 10:11:20;;;;;;;5.63;2.85;;;7.90;1.00;;;;;;5023517;28;20305;-79
2022/01/05 10:13:48;;;;;;;8.73;3.20;;;7.90;1.00;;;;;;5017202;28;20332;-81
2022/01/05 10:16:16;;;;;;;6.85;2.40;;;7.70;1.00;;;;;;5025576;28;20221;-81
2022/01/05 10:18:45;;;;;;;4.68;2.38;;;7.50;1.00;;;;;;5023137;28;20232;-81
2022/01/05 10:21:14;;;;;;;5.95;2.78;;;6.90;1.00;;;;;;5027664;28;20230;-77
2022/01/05 10:23:42;;;;;;;5.70;3.20;;;6.70;1.00;;;;;;5025503;28;20263;-77
2022/01/05 10:26:29;;;;;;;9.50;4.78;;;6.40;1.00;;;;;;5027948;28;20342;-80
2022/01/05 10:28:58;;;;;;;17.67;3.25;;;6.30;1.00;;;;;;5028344;28;20697;-80
2022/01/05 10:31:29;;;;;;;6.32;3.65;;;6.20;1.00;;;;;;5034741;28;20217;-78
2022/01/05 10:33:56;;;;;;;7.03;2.97;;;6.00;1.00;;;;;;5027808;28;20300;-79
2022/01/05 10:36:23;;;;;;;7.72;2.90;;;5.90;1.00;;;;;;5034757;28;20281;-78
2022/01/05 10:38:58;;;;;;;9.10;3.28;;;6.00;1.00;;;;;;5032377;28;20319;-80
2022/01/05 10:41:27;;;;;;;5.28;2.15;;;6.10;1.00;;;;;;5041934;28;20281;-79
2022/01/05 10:44:24;;;;;;;5.68;2.40;;;6.20;1.00;;;;;;5026292;28;24241;-78
2022/01/05 10:46:55;;;;;;;12.00;2.67;;;6.20;1.00;;;;;;4954576;28;21074;-78
2022/01/05 10:49:25;;;;;;;6.10;2.95;;;6.30;1.00;;;;;;5014521;28;20253;-79
2022/01/05 10:51:54;;;;;;;6.15;2.72;;;6.30;1.00;;;;;;5034349;28;20261;-77
2022/01/05 10:54:26;;;;;;;5.65;2.58;;;6.30;1.00;;;;;;5031886;28;20320;-75
2022/01/05 10:56:53;;;;;;;13.27;4.95;;;6.30;1.00;;;;;;5023847;28;20331;-77
2022/01/05 10:59:28;;;;;;;7.50;2.65;;;6.20;1.00;;;;;;5026321;28;20213;-78
2022/01/05 11:01:56;;;;;;;9.32;3.10;;;6.20;1.00;;;;;;5041101;28;20387;-78
2022/01/05 11:04:24;;;;;;;6.90;2.88;;;6.20;1.00;;;;;;5045305;28;20281;-77
2022/01/05 11:06:55;;;;;;;7.97;3.40;;;6.40;1.00;;;;;;5039261;28;20262;-79
2022/01/05 11:09:23;;;;;;;5.60;2.78;;;6.50;1.00;;;;;;5031800;28;20362;-79
2022/01/05 11:11:50;;;;;;;10.65;2.80;;;6.60;1.00;;;;;;5029763;28;20249;-78
2022/01/05 11:14:18;;;;;;;12.52;3.15;;;6.90;1.00;;;;;;5024813;28;20225;-79
2022/01/05 11:16:50;;;;;;;6.43;2.90;;;6.90;1.00;;;;;;5030135;28;21162;-79
2022/01/05 11:19:20;;;;;;;9.93;3.08;;;6.90;1.00;;;;;;5027764;28;20360;-79
2022/01/05 11:22:00;;;;;;;7.20;2.70;;;6.50;1.00;;;;;;5025933;28;20291;-79
2022/01/05 11:24:34;;;;;;;8.90;2.83;;;6.30;1.00;;;;;;5017991;28;20222;-79
2022/01/05 11:27:02;;;;;;;8.75;2.95;;;6.40;1.00;;;;;;5021197;28;20357;-79
2022/01/05 11:29:29;;;;;;;5.63;2.35;;;6.40;1.00;;;;;;5018042;28;20229;-78
2022/01/05 11:31:57;;;;;;;6.47;3.25;;;6.50;1.00;;;;;;5021786;28;20874;-79
2022/01/05 11:34:28;;;;;;;4.20;2.28;;;6.60;1.00;;;;;;5036126;28;20244;-79
2022/01/05 11:36:57;;;;;;;5.40;2.47;;;6.80;1.00;;;;;;5037755;28;20319;-78
2022/01/05 11:39:24;;;;;;;5.72;2.65;;;7.10;1.00;;;;;;5042949;28;20283;-78
2022/01/05 11:41:53;;;;;;;5.80;2.78;;;7.30;1.00;;;;;;5038705;28;20233;-80
2022/01/05 11:44:20;;;;;;;7.60;2.90;;;7.60;1.00;;;;;;5031870;28;20293;-78
2022/01/05 11:46:48;;;;;;;6.65;2.70;;;8.70;1.00;;;;;;5039723;28;20329;-78
2022/01/05 11:49:16;;;;;;;6.45;2.83;;;9.40;1.00;;;;;;5040053;28;20269;-78
2022/01/05 11:51:50;;;;;;;5.45;3.08;;;9.10;1.00;;;;;;5043127;28;20310;-78
2022/01/05 11:54:20;;;;;;;5.10;2.90;;;9.00;1.00;;;;;;5041289;28;20241;-78
2022/01/05 11:56:51;;;;;;;6.32;3.53;;;9.50;1.00;;;;;;5042763;28;20326;-79
2022/01/05 11:59:36;;;;;;;8.93;2.85;;;9.60;1.00;;;;;;5045284;28;20231;-79
2022/01/05 12:02:09;;;;;;;4.03;2.63;;;8.90;1.00;;;;;;5040233;28;20284;-78
2022/01/05 12:04:59;;;;;;;7.72;3.00;;;8.50;1.00;;;;;;5014723;28;20226;-82
2022/01/05 12:07:42;;;;;;;6.88;2.20;;;7.70;1.00;;;;;;5044266;28;20375;-80
2022/01/05 12:10:13;;;;;;;6.72;2.40;;;7.20;1.00;;;;;;5019149;28;20279;-80
2022/01/05 12:12:55;;;;;;;6.07;2.80;;;7.00;1.00;;;;;;5054303;28;20214;-81
2022/01/05 12:15:57;;;;;;;7.35;3.35;;;6.90;1.00;;;;;;5052645;28;20475;-80
2022/01/05 12:18:25;;;;;;;6.25;2.88;;;6.80;1.00;;;;;;4962514;28;20230;-81
2022/01/05 12:20:53;;;;;;;3.72;2.50;;;6.80;1.00;;;;;;5007691;28;20228;-79
2022/01/05 12:23:24;;;;;;;7.90;2.92;;;6.70;1.00;;;;;;5042135;28;20233;-80
2022/01/05 12:26:13;;;;;;;10.57;3.55;;;6.50;1.00;;;;;;5046385;28;20238;-81
2022/01/05 12:28:42;;;;;;;6.35;2.83;;;6.40;1.00;;;;;;5042946;28;21352;-82
2022/01/05 12:31:11;;;;;;;6.97;2.70;;;6.20;1.00;;;;;;5041034;28;20762;-82
2022/01/05 12:33:43;;;;;;;6.55;2.95;;;6.10;1.00;;;;;;5032644;28;20287;-82
2022/01/05 12:36:11;;;;;;;7.35;3.10;;;6.00;1.00;;;;;;5026742;28;20241;-83
2022/01/05 12:38:42;;;;;;;6.85;2.80;;;6.00;1.00;;;;;;5041740;28;20210;-82
2022/01/05 12:41:31;;;;;;;5.95;2.47;;;5.90;1.00;;;;;;5044079;28;20218;-82
2022/01/05 12:43:59;;;;;;;9.35;3.70;;;5.80;1.00;;;;;;5039032;28;20296;-82
2022/01/05 12:46:41;;;;;;;6.75;2.88;;;5.80;1.00;;;;;;5036678;28;20281;-80
2022/01/05 12:49:13;;;;;;;4.88;2.50;;;5.80;1.00;;;;;;5047022;28;20978;-82
2022/01/05 12:51:53;;;;;;;6.45;2.95;;;5.70;1.00;;;;;;5030240;28;21088;-77
2022/01/05 12:54:24;;;;;;;10.50;4.10;;;5.70;1.00;;;;;;5034033;28;20328;-80
2022/01/05 12:56:54;;;;;;;7.05;2.88;;;5.60;1.00;;;;;;5024145;28;20321;-77
2022/01/05 12:59:28;;;;;;;5.75;3.03;;;5.60;1.00;;;;;;5031011;28;20221;-78
2022/01/05 13:01:56;;;;;;;6.65;3.17;;;5.50;1.00;;;;;;5038108;28;20222;-77
2022/01/05 13:04:26;;;;;;;5.07;2.85;;;5.50;1.00;;;;;;5040289;28;20238;-78
2022/01/05 13:06:58;;;;;;;10.93;3.95;;;5.50;1.00;;;;;;5013817;28;20233;-79
2022/01/05 13:09:30;;;;;;;5.97;2.70;;;5.60;1.00;;;;;;5038720;28;20290;-77
2022/01/05 13:11:59;;;;;;;7.28;3.33;;;5.60;1.00;;;;;;5043389;28;20221;-79
2022/01/05 13:14:30;;;;;;;10.60;3.65;;;5.50;1.00;;;;;;5045288;28;20250;-77
2022/01/05 13:16:59;;;;;;;4.30;2.55;;;5.50;1.00;;;;;;5018108;28;20278;-77
2022/01/05 13:19:42;;;;;;;11.30;4.10;;;5.50;1.00;;;;;;5036491;28;20218;-77
2022/01/05 13:22:12;;;;;;;6.18;4.15;;;5.40;1.00;;;;;;5040438;28;20230;-80
2022/01/05 13:24:49;;;;;;;5.50;3.25;;;5.40;1.00;;;;;;5023770;28;20304;-79
2022/01/05 13:27:19;;;;;;;6.18;3.45;;;5.40;1.00;;;;;;5037322;28;20324;-78
2022/01/05 13:29:46;;;;;;;7.20;3.28;;;5.40;1.00;;;;;;5045889;28;20926;-80
2022/01/05 13:32:15;;;;;;;10.43;3.45;;;5.30;1.00;;;;;;5035550;28;20222;-78
2022/01/05 13:34:45;;;;;;;8.95;4.28;;;5.20;1.00;;;;;;5018652;28;20816;-78
2022/01/05 13:37:13;;;;;;;8.48;3.33;;;5.20;1.00;;;;;;5034338;28;20930;-77
2022/01/05 13:39:43;;;;;;;8.23;4.35;;;5.20;1.00;;;;;;5042589;28;20696;-82
2022/01/05 13:42:13;;;;;;;7.32;3.40;;;5.20;1.00;;;;;;5035467;28;20249;-77
2022/01/05 13:44:41;;;;;;;6.13;3.45;;;5.10;1.00;;;;;;5039765;28;20229;-79
2022/01/05 13:47:10;;;;;;;8.07;3.92;;;5.10;1.00;;;;;;5037694;28;20312;-78
2022/01/05 13:49:37;;;;;;;7.45;3.03;;;5.10;1.00;;;;;;5043613;28;20275;-77
2022/01/05 13:52:11;;;;;;;9.23;3.47;;;5.00;1.00;;;;;;5044218;28;20550;-78
2022/01/05 13:54:40;;;;;;;9.23;3.50;;;4.90;1.00;;;;;;5042677;28;20257;-79
2022/01/05 13:57:07;;;;;;;6.07;3.08;;;4.90;1.00;;;;;;5036073;28;20233;-76
2022/01/05 13:59:41;;;;;;;7.07;3.65;;;4.90;1.00;;;;;;5036051;28;20237;-77
2022/01/05 14:02:09;;;;;;;5.88;3.13;;;4.90;1.00;;;;;;5044846;28;20217;-76
2022/01/05 14:04:50;;;;;;;8.75;2.75;;;4.80;1.00;;;;;;5046955;28;20703;-77
2022/01/05 14:07:19;;;;;;;7.00;3.75;;;4.80;1.00;;;;;;5050443;28;20224;-76
2022/01/05 14:09:46;;;;;;;8.23;3.40;;;4.80;1.00;;;;;;5049244;28;20225;-77
2022/01/05 14:12:28;;;;;;;6.40;3.25;;;4.80;1.00;;;;;;5047892;28;20248;-78
2022/01/05 14:14:58;;;;;;;5.30;3.38;;;4.80;1.00;;;;;;5042417;28;20765;-77
2022/01/05 14:17:25;;;;;;;8.38;3.50;;;4.80;1.00;;;;;;5035955;28;20340;-78
2022/01/05 14:19:51;;;;;;;6.00;3.55;;;4.70;1.00;;;;;;5040009;28;20258;-75
2022/01/05 14:22:19;;;;;;;5.97;3.40;;;4.70;1.00;;;;;;5039016;28;20230;-79
2022/01/05 14:24:48;;;;;;;8.25;4.30;;;4.80;1.00;;;;;;5040263;28;20236;-79
2022/01/05 14:27:21;;;;;;;7.03;3.28;;;4.80;1.00;;;;;;5032978;28;20309;-77
2022/01/05 14:30:01;;;;;;;6.38;3.10;;;4.80;1.00;;;;;;5020490;28;20222;-76
2022/01/05 14:32:33;;;;;;;7.88;3.20;;;4.70;1.00;;;;;;5039650;28;20313;-77
2022/01/05 14:35:02;;;;;;;8.50;3.30;;;4.60;1.00;;;;;;5023695;28;20258;-79
2022/01/05 14:37:29;;;;;;;7.00;3.13;;;4.50;1.00;;;;;;5037197;28;20364;-78
2022/01/05 14:39:56;;;;;;;6.47;3.22;;;4.40;1.00;;;;;;5038156;28;20289;-76
2022/01/05 14:42:23;;;;;;;6.68;4.10;;;4.30;1.00;;;;;;5015983;28;21161;-78
2022/01/05 14:44:52;;;;;;;5.70;3.70;;;4.20;1.00;;;;;;5037994;28;20257;-78
2022/01/05 14:47:24;;;;;;;5.68;3.90;;;4.10;1.00;;;;;;5042477;28;20246;-75
2022/01/05 14:49:52;;;;;;;5.30;3.00;;;4.10;1.00;;;;;;5048568;28;20521;-78
2022/01/05 14:52:22;;;;;;;6.28;2.75;;;4.10;1.00;;;;;;5020468;28;20360;-81
2022/01/05 14:54:52;;;;;;;7.30;3.58;;;4.10;1.00;;;;;;5049457;28;20325;-79
2022/01/05 14:57:21;;;;;;;7.28;3.22;;;4.10;1.00;;;;;;5044705;28;20245;-79
2022/01/05 14:59:48;;;;;;;8.70;3.75;;;4.10;1.00;;;;;;5024685;28;20291;-80
2022/01/05 15:02:15;;;;;;;5.55;3.58;;;4.00;1.00;;;;;;5036701;28;20272;-82
2022/01/05 15:04:43;;;;;;;8.20;3.40;;;4.00;1.00;;;;;;5030451;28;20222;-81
2022/01/05 15:07:10;;;;;;;6.45;3.97;;;3.90;1.00;;;;;;5041980;28;20230;-81
2022/01/05 15:09:42;;;;;;;5.10;3.40;;;3.90;1.00;;;;;;5043536;28;20243;-83
2022/01/05 15:12:10;;;;;;;8.63;4.15;;;3.80;1.00;;;;;;5039350;28;20214;-83
2022/01/05 15:14:36;;;;;;;6.13;3.05;;;3.70;1.00;;;;;;5037811;28;20232;-81
2022/01/05 15:17:03;;;;;;;7.22;3.90;;;3.60;1.00;;;;;;5044172;28;20253;-81
2022/01/05 15:19:30;;;;;;;7.22;4.03;;;3.60;1.00;;;;;;5045431;28;20269;-82
2022/01/05 15:21:58;;;;;;;6.45;3.90;;;3.60;1.00;;;;;;5043616;28;20218;-80
2022/01/05 15:24:25;;;;;;;6.60;3.38;;;3.60;1.00;;;;;;5043335;28;20214;-83
2022/01/05 15:26:52;;;;;;;6.03;3.97;;;3.60;1.00;;;;;;5037826;28;20343;-81
2022/01/05 15:29:19;;;;;;;4.63;3.70;;;3.60;1.00;;;;;;5041548;28;20226;-82
2022/01/05 15:31:45;;;;;;;7.20;3.72;;;3.70;1.00;;;;;;5043257;28;20291;-81
2022/01/05 15:34:13;;;;;;;4.82;3.15;;;3.70;1.00;;;;;;5042499;28;20226;-81
2022/01/05 15:36:40;;;;;;;5.50;3.88;;;3.80;1.00;;;;;;5039688;28;20221;-81
2022/01/05 15:39:08;;;;;;;4.70;3.35;;;3.80;1.00;;;;;;5019262;28;21053;-82
2022/01/05 15:41:36;;;;;;;10.60;4.18;;;3.70;1.00;;;;;;5033821;28;20957;-81
2022/01/05 15:44:03;;;;;;;4.15;3.35;;;3.80;1.00;;;;;;5031768;28;20253;-81
2022/01/05 15:46:29;;;;;;;7.43;3.70;;;3.80;1.00;;;;;;5018132;28;20617;-78
2022/01/05 15:48:56;;;;;;;5.03;3.20;;;3.80;1.00;;;;;;5037272;28;20299;-80
2022/01/05 15:51:23;;;;;;;6.53;3.80;;;3.80;1.00;;;;;;5034296;28;20225;-79
2022/01/05 15:53:50;;;;;;;5.95;4.03;;;3.90;1.00;;;;;;5034002;28;20225;-79
2022/01/05 15:56:32;;;;;;;8.65;3.88;;;3.90;1.00;;;;;;5024238;28;20240;-81
2022/01/05 16:01:46;;;;;;;7.05;4.30;;;3.80;1.00;;;;;;5044430;28;20237;-81
2022/01/05 16:04:15;;;;;;;6.95;4.45;;;3.80;1.00;;;;;;5038865;28;20217;-80
2022/01/05 16:06:43;;;;;;;6.60;5.07;;;3.80;1.00;;;;;;5040354;28;20292;-81
2022/01/05 16:09:12;;;;;;;7.85;4.35;;;3.70;1.00;;;;;;5040383;28;20384;-80
2022/01/05 16:11:42;;;;;;;7.85;5.55;;;3.70;1.00;;;;;;5016443;28;20312;-77
2022/01/05 16:14:09;;;;;;;6.50;4.70;;;3.60;1.00;;;;;;5051422;28;20230;-77
2022/01/05 16:16:37;;;;;;;5.70;4.03;;;3.60;1.00;;;;;;5055970;28;20290;-78
2022/01/05 16:19:04;;;;;;;4.85;4.38;;;3.60;1.00;;;;;;5042671;28;20229;-78
2022/01/05 16:21:31;;;;;;;8.40;4.50;;;3.50;1.00;;;;;;5048300;28;20274;-78
2022/01/05 16:23:58;;;;;;;5.20;4.30;;;3.50;1.00;;;;;;5048743;28;20508;-79
2022/01/05 16:26:25;;;;;;;6.85;4.22;;;3.50;1.00;;;;;;5051186;28;20233;-77
2022/01/05 16:28:53;;;;;;;7.55;5.05;;;3.50;1.00;;;;;;5033029;28;20226;-80
2022/01/05 16:31:20;;;;;;;4.70;4.25;;;3.50;1.00;;;;;;5035329;28;20222;-81
2022/01/05 16:33:47;;;;;;;6.53;4.53;;;3.40;1.00;;;;;;5042326;28;20229;-79
2022/01/05 16:36:15;;;;;;;5.28;4.65;;;3.50;1.00;;;;;;5040665;28;20315;-79
2022/01/05 16:38:43;;;;;;;8.90;4.35;;;3.40;1.00;;;;;;5019978;28;20250;-79
2022/01/05 16:41:11;;;;;;;8.55;4.75;;;3.40;1.00;;;;;;5017089;28;21121;-80
2022/01/05 16:43:38;;;;;;;6.95;4.10;;;3.40;1.00;;;;;;5036320;28;20272;-78
2022/01/05 16:46:06;;;;;;;8.90;5.13;;;3.40;1.00;;;;;;5036011;28;20249;-79
2022/01/05 16:48:34;;;;;;;7.07;5.60;;;3.40;1.00;;;;;;5045337;28;20230;-79
2022/01/05 16:51:00;;;;;;;7.63;5.45;;;3.40;1.00;;;;;;5037107;28;20227;-81
2022/01/05 16:53:27;;;;;;;8.32;5.38;;;3.40;1.00;;;;;;5030653;28;20305;-79
2022/01/05 16:55:54;;;;;;;7.85;5.35;;;3.40;1.00;;;;;;5032693;28;20221;-81
2022/01/05 17:01:10;;;;;;;5.65;4.60;;;3.40;1.00;;;;;;5034894;28;20222;-80
2022/01/05 17:03:37;;;;;;;8.43;6.70;;;3.40;1.00;;;;;;5035617;28;20294;-79
2022/01/05 17:06:05;;;;;;;6.30;4.95;;;3.50;1.00;;;;;;5037942;28;20295;-80
2022/01/05 17:08:31;;;;;;;6.20;5.22;;;3.50;1.00;;;;;;5038947;28;20230;-78
2022/01/05 17:10:59;;;;;;;8.43;6.03;;;3.50;1.00;;;;;;5037755;28;20235;-77
2022/01/05 17:13:26;;;;;;;6.53;5.70;;;3.50;1.00;;;;;;5032185;28;21186;-83
2022/01/05 17:15:53;;;;;;;7.90;6.03;;;3.60;1.00;;;;;;5034694;28;20345;-80
2022/01/05 17:18:22;;;;;;;7.88;5.32;;;3.70;1.00;;;;;;5035967;28;20284;-79
2022/01/05 17:20:50;;;;;;;9.25;6.30;;;3.70;1.00;;;;;;5034029;28;20234;-80
2022/01/05 17:23:17;;;;;;;7.28;5.90;;;3.80;1.00;;;;;;5018358;28;20233;-80
2022/01/05 17:25:44;;;;;;;6.85;5.80;;;3.80;1.00;;;;;;5039113;28;20240;-80
2022/01/05 17:28:10;;;;;;;9.75;6.30;;;3.80;1.00;;;;;;5046842;28;20263;-82
2022/01/05 17:30:37;;;;;;;7.18;5.80;;;3.80;1.00;;;;;;5039101;28;20580;-80
2022/01/05 17:33:04;;;;;;;8.55;6.70;;;3.80;1.00;;;;;;5039288;28;20221;-81
2022/01/05 17:35:33;;;;;;;9.05;6.72;;;3.90;1.00;;;;;;5009795;28;20446;-80
2022/01/05 17:38:01;;;;;;;9.27;6.65;;;3.90;1.00;;;;;;5043520;28;20228;-78
2022/01/05 17:40:29;;;;;;;6.75;6.05;;;4.00;1.00;;;;;;5058060;28;20277;-78
2022/01/05 17:42:56;;;;;;;10.13;6.80;;;4.00;1.00;;;;;;5029841;28;20317;-79
2022/01/05 17:45:23;;;;;;;6.80;6.03;;;4.10;1.00;;;;;;5034922;28;20297;-79
2022/01/05 17:47:50;;;;;;;8.63;6.55;;;4.10;1.00;;;;;;5022199;28;20252;-80
2022/01/05 17:50:17;;;;;;;8.75;6.15;;;4.10;1.00;;;;;;5032830;28;22729;-79
2022/01/05 17:52:45;;;;;;;10.73;6.82;;;4.10;1.00;;;;;;5044147;28;20297;-78
2022/01/05 17:55:12;;;;;;;8.10;6.70;;;4.20;1.00;;;;;;5034917;28;20225;-79
2022/01/05 17:57:39;;;;;;;8.40;6.53;;;4.30;1.00;;;;;;5020348;28;20317;-79
2022/01/05 18:00:09;;;;;;;8.43;6.70;;;4.30;1.00;;;;;;5044369;28;20265;-78
2022/01/05 18:02:36;;;;;;;8.65;7.05;;;4.30;1.00;;;;;;5035010;28;20226;-80
2022/01/05 18:05:03;;;;;;;11.00;7.93;;;4.30;1.00;;;;;;5032117;28;20229;-81
2022/01/05 18:07:30;;;;;;;13.45;8.00;;;4.30;1.00;;;;;;5040064;28;20325;-80
2022/01/05 18:09:58;;;;;;;11.65;7.13;;;4.40;1.00;;;;;;5012639;28;20242;-80
2022/01/05 18:12:26;;;;;;;9.13;6.93;;;4.40;1.00;;;;;;5035258;28;20292;-81
2022/01/05 18:14:53;;;;;;;9.45;7.00;;;4.40;1.00;;;;;;5050344;28;20232;-82
2022/01/05 18:17:20;;;;;;;13.30;7.78;;;4.40;1.00;;;;;;5019919;28;20225;-80
2022/01/05 18:19:47;;;;;;;11.80;7.45;;;4.40;1.00;;;;;;5038096;28;20221;-81
2022/01/05 18:22:13;;;;;;;12.05;6.22;;;4.40;1.00;;;;;;5028597;28;20365;-82
2022/01/05 18:24:40;;;;;;;7.20;5.35;;;4.40;1.00;;;;;;5034201;28;20373;-80
2022/01/05 18:27:08;;;;;;;10.35;6.80;;;4.40;1.00;;;;;;5033275;28;20346;-81
2022/01/05 18:29:35;;;;;;;12.75;6.53;;;4.40;1.00;;;;;;5037692;28;20283;-81
2022/01/05 18:32:02;;;;;;;10.77;6.15;;;4.40;1.00;;;;;;5043371;28;20260;-82
2022/01/05 18:34:29;;;;;;;11.40;5.90;;;4.40;1.00;;;;;;5019668;28;20250;-81
2022/01/05 18:36:59;;;;;;;11.23;4.85;;;4.50;1.00;;;;;;5037425;28;20304;-81
2022/01/05 18:39:26;;;;;;;7.80;4.95;;;4.50;1.00;;;;;;5020686;28;20299;-82
2022/01/05 18:41:53;;;;;;;9.18;4.78;;;4.50;1.00;;;;;;5036873;28;20233;-82
2022/01/05 18:44:21;;;;;;;7.68;5.40;;;4.50;1.00;;;;;;5038679;28;20226;-82
2022/01/05 18:46:49;;;;;;;11.77;5.35;;;4.50;1.00;;;;;;5042945;28;20232;-80
2022/01/05 18:49:17;;;;;;;11.25;5.20;;;4.50;1.00;;;;;;5058791;28;20221;-80
2022/01/05 18:51:44;;;;;;;8.75;5.40;;;4.50;1.00;;;;;;5047154;28;20969;-81
2022/01/05 18:54:11;;;;;;;9.00;5.50;;;4.60;1.00;;;;;;5032229;28;20234;-80
2022/01/05 18:56:37;;;;;;;10.13;4.75;;;4.60;1.00;;;;;;5033828;28;20252;-80
2022/01/05 18:59:04;;;;;;;7.97;4.35;;;4.60;1.00;;;;;;5032463;28;20241;-81
2022/01/05 19:01:32;;;;;;;9.60;4.70;;;4.60;1.00;;;;;;5040171;28;20252;-81
2022/01/05 19:03:59;;;;;;;11.35;5.53;;;4.60;1.00;;;;;;5036177;28;20222;-82
2022/01/05 19:06:26;;;;;;;7.97;3.58;;;4.60;1.00;;;;;;5034262;28;20260;-80
2022/01/05 19:08:53;;;;;;;10.27;5.40;;;4.60;1.00;;;;;;5022340;28;20242;-82
2022/01/05 19:11:20;;;;;;;8.98;4.72;;;4.60;1.00;;;;;;5032082;28;20225;-80
2022/01/05 19:13:49;;;;;;;9.18;4.85;;;4.60;1.00;;;;;;5040692;28;20230;-81
2022/01/05 19:16:18;;;;;;;7.80;4.55;;;4.60;1.00;;;;;;5033242;28;20246;-80
2022/01/05 19:18:47;;;;;;;11.38;4.70;;;4.50;1.00;;;;;;5041383;28;20218;-83
2022/01/05 19:21:15;;;;;;;11.68;5.60;;;4.50;1.00;;;;;;5019909;28;20232;-83
2022/01/05 19:23:43;;;;;;;7.28;4.25;;;4.50;1.00;;;;;;5030208;28;20229;-81
2022/01/05 19:26:10;;;;;;;8.90;3.92;;;4.40;1.00;;;;;;5028431;28;20291;-82
2022/01/05 19:28:40;;;;;;;7.35;3.75;;;4.40;1.00;;;;;;5027075;28;20229;-82
2022/01/05 19:31:07;;;;;;;8.35;4.05;;;4.40;1.00;;;;;;5040081;28;20222;-82
2022/01/05 19:33:35;;;;;;;11.13;5.13;;;4.40;1.00;;;;;;5020233;28;21070;-83
2022/01/05 19:36:04;;;;;;;9.52;6.82;;;4.50;1.00;;;;;;5048089;28;20260;-81
2022/01/05 19:38:33;;;;;;;6.60;4.40;;;4.50;1.00;;;;;;5041185;28;20229;-81
2022/01/05 19:41:00;;;;;;;8.63;4.85;;;4.50;1.00;;;;;;5023148;28;20230;-82
2022/01/05 19:43:26;;;;;;;9.50;4.68;;;4.50;1.00;;;;;;5034516;28;20232;-81
2022/01/05 19:45:54;;;;;;;6.53;4.40;;;4.60;1.00;;;;;;5032976;28;20241;-82
2022/01/05 19:48:21;;;;;;;9.25;3.95;;;4.60;1.00;;;;;;5048585;28;20217;-82
2022/01/05 19:50:58;;;;;;;10.07;3.97;;;4.60;1.00;;;;;;5057301;28;20229;-82